LIMP/PMF METAR and TAF weather

Enter ICAO airport designator
Station Type Date Time Source
LIMP METAR 2020/12/05 06:00 UTC NOAA

LIMP 050600Z 29005KT 2500 -RA BR SCT005 OVC010 03/03 Q0999


Station Type Date Time Source
LIMP Decoded METAR 2020/12/05 06:00 UTC NOAA

Parma, Italy (LIMP) 44-49-17N 010-17-41E
Dec 05, 2020 - 01:00 AM EST / 2020.12.05 0600 UTC
Wind: from the WNW (290 degrees) at 6 MPH (5 KT):0
Visibility: 1 mile(s):0
Sky conditions: overcast
Weather: light rain; mist
Temperature: 37 F (3 C)
Dew Point: 37 F (3 C)
Relative Humidity: 100%
Pressure (altimeter): 29.50 in. Hg (0999 hPa)
ob: LIMP 050600Z 29005KT 2500 -RA BR SCT005 OVC010 03/03 Q0999
cycle: 6

Station Type Date Time Source
LIMP TAF 2020/12/04 18:36 UTC NOAA

TAF
AMD LIMP 042232Z 0418/0518 CNL

Example: see airport list